My webcam more information My webcam



Nearby METAR Reports

   
KTOL - Toledo, OH
Updated: Jun 24 2019 1:52 pm
Light Rain, Mostly Cloudy  
Light Rain, Mostly Cloudy  
   Wind: SW 12.7 mph
Wind: SW 12.7 mph
Temperature: 80.6°F
Heat Index: 82.4°F
Dew Point: 64.4°F
Humidity: 58%
Barometer: 29.69 inHg
Clouds: Mostly Cloudy
Visibility: 10 mi
Cloud details: Few Clouds 3600 ft,
Mostly Cloudy 4800 ft
KTOL 241752Z 22011KT 10SM -RA FEW036 BKN048 27/18 A2969 RMK AO2 SLP050 P0000 60000 T02670183 10278 20228 58008
KCMH - Columbus, OH
Updated: Jun 24 2019 1:51 pm
Overcast  
Overcast  
   Wind: SW 11.5 mph
Wind: SW 11.5 mph
Temperature: 82.4°F
Heat Index: 84.2°F
Dew Point: 64.4°F
Humidity: 55%
Barometer: 29.77 inHg
Clouds: Overcast
Visibility: 10 mi
Cloud details: Few Clouds 3000 ft,
Partly Cloudy 6500 ft,
Mostly Cloudy 11000 ft,
Overcast 25000 ft
KCMH 241751Z 23010KT 10SM FEW030 SCT065 BKN110 OVC250 28/18 A2977 RMK AO2 SLP072 T02780183 10278 20211 58017
KCLE - Cleveland, OH
Updated: Jun 24 2019 1:51 pm
Mostly Cloudy  
Mostly Cloudy  
   Wind: South 13.8 mph
Wind: South 13.8 mph
Temperature: 82.4°F
Heat Index: 84.2°F
Dew Point: 68°F
Humidity: 62%
Barometer: 29.75 inHg
Clouds: Mostly Cloudy
Visibility: 10 mi
Cloud details: Few Clouds 3000 ft,
Mostly Cloudy 11000 ft,
Mostly Cloudy 25000 ft
KCLE 241751Z 18012KT 10SM FEW030 BKN110 BKN250 28/20 A2975 RMK AO2 SLP068 T02830200 10283 20233 58010 $
KYNG - Youngstown, OH
Updated: Jun 24 2019 1:51 pm
Overcast  
Overcast  
   Wind: SSW 9.2 mph
Wind: SSW 9.2 mph
Temperature: 82.4°F
Heat Index: 84.2°F
Dew Point: 64.4°F
Humidity: 55%
Barometer: 29.8 inHg
Clouds: Overcast
Visibility: 10 mi
Cloud details: Few Clouds 3900 ft,
Mostly Cloudy 13000 ft,
Overcast 25000 ft
KYNG 241751Z 20008KT 10SM FEW039 BKN130 OVC250 28/18 A2980 RMK AO2 SLP081 T02780183 10283 20183 58006
KDAY - Dayton, OH
Updated: Jun 24 2019 1:56 pm
Mostly Cloudy  
Mostly Cloudy  
   Wind: WSW 13.8 mph
Wind: WSW 13.8 mph
Temperature: 78.8°F
Dew Point: 66.2°F
Humidity: 65%
Barometer: 29.78 inHg
Clouds: Mostly Cloudy
Visibility: 10 mi
Cloud details: Few Clouds 2800 ft,
Partly Cloudy 3600 ft,
Mostly Cloudy 6000 ft
KDAY 241756Z 24012KT 10SM FEW028 SCT036 BKN060 26/19 A2978 RMK AO2 CIG 038 RWY 6L SLP077 T02610189 10272 20211 58009
KZZV - Zanesville, OH
Updated: Jun 24 2019 1:53 pm
Few Clouds  
Few Clouds  
   Wind: varies 6.9 mph<br />Gust to 6.9 mph
Wind: varies 6.9 mph
Gust to 6.9 mph
Temperature: 82.4°F
Heat Index: 84.2°F
Dew Point: 68°F
Humidity: 62%
Barometer: 29.8 inHg
Clouds: Few Clouds
Visibility: 10 mi
Cloud details: Few Clouds 8000 ft
KZZV 241753Z AUTO VRB06G15KT 10SM FEW080 28/20 A2980 RMK AO2 SLP082 T02830200 10283 20217 58015

Script developed by  Saratoga-weather.org Adapted for the template by  Weerstation Leuven

You find our weather info also at:

UK Metoffice

WeatherCloud

Weather Underground

Midwestern Weather Network

AWEKAS

Citizen Weather Observer Program (CWOP)

HAMweather, WeatherForYou, PWS Weather

Equipment we use:

Weather-station
Davis VP2

Weather-program
Cumulus

Weather-server
Raspberry Pi

Provider
GoDaddy

Davis VP2

Cumulus

Raspberry Pi

GoDaddy